createdAt,value
2024-03-22T01:55:49.933Z,25.10
2024-03-22T01:58:20.978Z,14.00
2024-03-22T02:00:52.726Z,12.30
2024-03-22T02:03:23.357Z,12.80
2024-03-22T02:05:55.108Z,11.70
2024-03-22T02:08:25.950Z,12.20
2024-03-22T02:10:57.505Z,11.80
2024-03-22T02:13:28.150Z,12.00
2024-03-22T02:15:59.690Z,9.10
2024-03-22T02:18:30.329Z,8.10
2024-03-22T02:21:01.773Z,9.00
2024-03-22T02:23:42.020Z,10.00
2024-03-22T02:26:13.887Z,8.10
2024-03-22T02:28:44.212Z,7.80
2024-03-22T02:31:16.317Z,7.40
2024-03-22T02:33:46.815Z,6.70
2024-03-22T02:36:18.844Z,6.90
2024-03-22T02:38:49.193Z,6.20
2024-03-22T02:41:21.367Z,6.70
2024-03-22T02:43:51.792Z,6.00
2024-03-22T02:46:23.245Z,6.20
2024-03-22T02:48:53.976Z,5.60
2024-03-22T02:51:25.732Z,5.60
2024-03-22T02:53:56.543Z,6.60
2024-03-22T02:58:58.962Z,6.00
2024-03-22T03:01:31.031Z,5.90
2024-03-22T03:04:01.465Z,5.30
2024-03-22T03:06:33.106Z,5.90
2024-03-22T03:09:05.935Z,5.80
2024-03-22T03:11:40.432Z,5.50
2024-03-22T03:14:10.739Z,5.50
2024-03-22T03:16:42.590Z,5.30
2024-03-22T03:19:12.809Z,5.30
2024-03-22T03:21:44.778Z,4.90
2024-03-22T03:24:15.105Z,5.90
2024-03-22T03:26:47.267Z,5.20
2024-03-22T03:29:17.486Z,4.70
2024-03-22T03:31:50.306Z,5.40
2024-03-22T03:34:21.825Z,4.70
2024-03-22T03:36:53.475Z,4.40
2024-03-22T03:39:24.827Z,4.80
2024-03-22T03:44:27.313Z,5.00
2024-03-22T03:46:59.073Z,4.90
2024-03-22T03:49:29.711Z,4.80
2024-03-22T03:52:01.252Z,4.30
2024-03-22T03:54:31.887Z,5.00
2024-03-22T03:57:03.750Z,4.80
2024-03-22T03:59:34.273Z,4.80
2024-03-22T04:02:06.319Z,4.60
2024-03-22T04:04:36.777Z,4.80
2024-03-22T04:07:08.523Z,5.20
2024-03-22T04:09:38.851Z,4.60
2024-03-22T04:12:11.099Z,5.00
2024-03-22T04:14:41.666Z,4.80
2024-03-22T04:17:13.715Z,4.50
2024-03-22T04:19:44.138Z,5.10
2024-03-22T04:22:16.011Z,4.90
2024-03-22T04:24:46.828Z,4.80
2024-03-22T04:29:49.331Z,4.30
2024-03-22T04:32:21.407Z,6.00
2024-03-22T04:34:51.815Z,5.10
2024-03-22T04:37:23.714Z,5.60
2024-03-22T04:39:54.207Z,6.00
2024-03-22T04:42:25.971Z,5.40
2024-03-22T04:44:56.288Z,5.60
2024-03-22T04:47:28.283Z,6.50
2024-03-22T04:49:58.888Z,6.10
2024-03-22T04:52:30.439Z,5.60
2024-03-22T04:55:03.070Z,6.70
2024-03-22T04:57:34.564Z,5.80
2024-03-22T05:00:08.477Z,7.50
2024-03-22T05:02:41.492Z,5.80
2024-03-22T05:05:13.700Z,6.60
2024-03-22T05:07:45.280Z,6.00
2024-03-22T05:10:17.982Z,6.40
2024-03-22T05:12:50.230Z,6.70
2024-03-22T05:15:20.974Z,6.20
2024-03-22T05:17:53.033Z,6.80
2024-03-22T05:20:23.571Z,9.40
2024-03-22T05:22:55.899Z,7.40
2024-03-22T05:25:29.505Z,6.30
2024-03-22T05:28:02.276Z,7.30
2024-03-22T05:30:33.051Z,5.40
2024-03-22T05:33:05.109Z,7.30
2024-03-22T05:35:35.748Z,6.90
2024-03-22T05:38:07.499Z,7.50
2024-03-22T05:40:39.987Z,7.30
2024-03-22T05:43:11.941Z,7.20
2024-03-22T05:45:42.162Z,7.00
2024-03-22T05:48:14.221Z,6.60
2024-03-22T05:50:44.457Z,8.30
2024-03-22T05:53:16.217Z,7.50
2024-03-22T05:55:46.536Z,8.90
2024-03-22T05:58:19.213Z,7.80
2024-03-22T06:00:49.640Z,6.30
2024-03-22T06:03:21.700Z,8.00
2024-03-22T06:05:56.324Z,8.20
2024-03-22T06:08:28.407Z,7.10
2024-03-22T06:10:58.709Z,7.50
2024-03-22T06:13:33.080Z,8.80
2024-03-22T06:16:04.858Z,8.70
2024-03-22T06:18:36.759Z,8.90
2024-03-22T06:21:07.380Z,8.90
2024-03-22T06:23:39.443Z,7.80
2024-03-22T06:26:09.779Z,9.20
2024-03-22T06:28:41.643Z,7.70
2024-03-22T06:31:12.058Z,9.20
2024-03-22T06:33:43.896Z,7.80
2024-03-22T06:36:14.346Z,7.70
2024-03-22T06:38:45.996Z,7.90
2024-03-22T06:41:16.540Z,7.70
2024-03-22T06:43:48.286Z,8.20
2024-03-22T06:46:18.715Z,8.90
2024-03-22T06:48:50.591Z,10.10
2024-03-22T06:51:21.098Z,8.40
2024-03-22T06:53:53.558Z,8.00
2024-03-22T06:56:24.515Z,8.10
2024-03-22T06:58:56.685Z,8.20
2024-03-22T07:01:27.206Z,9.80
2024-03-22T07:03:58.872Z,9.40
2024-03-22T07:06:29.597Z,7.80
2024-03-22T07:09:01.258Z,8.20
2024-03-22T07:11:33.305Z,7.80
2024-03-22T07:14:04.877Z,9.00
2024-03-22T07:16:35.497Z,8.80
2024-03-22T07:19:07.268Z,8.60
2024-03-22T07:21:37.683Z,9.00
2024-03-22T07:24:09.251Z,7.80
2024-03-22T07:26:40.070Z,8.40
2024-03-22T07:31:42.847Z,7.80
2024-03-22T07:34:14.554Z,8.30
2024-03-22T07:36:45.165Z,8.50
2024-03-22T07:39:16.914Z,7.40
2024-03-22T07:41:47.676Z,7.80
2024-03-22T07:44:20.953Z,8.30
2024-03-22T07:46:51.499Z,8.70
2024-03-22T07:49:23.143Z,9.10
2024-03-22T07:51:54.374Z,8.90
2024-03-22T07:54:25.947Z,7.80
2024-03-22T07:56:56.896Z,7.40
2024-03-22T07:59:28.717Z,8.00
2024-03-22T08:01:59.263Z,7.40
2024-03-22T08:04:31.400Z,8.20
2024-03-22T08:07:02.685Z,7.90
2024-03-22T08:09:35.052Z,7.90
2024-03-22T08:12:05.978Z,6.30
2024-03-22T08:14:38.045Z,8.30
2024-03-22T08:17:10.423Z,8.30
2024-03-22T08:19:42.621Z,8.20
2024-03-22T08:22:13.113Z,7.40
2024-03-22T08:24:44.975Z,7.70
2024-03-22T08:27:15.502Z,8.20
2024-03-22T08:29:48.819Z,7.60
2024-03-22T08:32:19.997Z,7.20
2024-03-22T08:34:51.763Z,7.50
2024-03-22T08:37:22.374Z,7.20
2024-03-22T08:42:24.621Z,8.10
2024-03-22T08:47:27.227Z,8.00
2024-03-22T08:49:59.428Z,6.40
2024-03-22T08:52:31.436Z,7.50
2024-03-22T08:55:05.792Z,8.20
2024-03-22T08:57:39.442Z,7.30
2024-03-22T09:00:14.029Z,8.50
2024-03-22T09:02:44.408Z,8.90
2024-03-22T09:05:16.678Z,7.00
2024-03-22T09:07:47.505Z,7.00
2024-03-22T09:10:20.893Z,6.70
2024-03-22T09:12:51.444Z,7.40
2024-03-22T09:15:23.411Z,7.00
2024-03-22T09:17:54.095Z,7.50
2024-03-22T09:22:56.533Z,6.40
2024-03-22T09:25:28.956Z,7.30
2024-03-22T09:27:59.328Z,6.90
2024-03-22T09:30:38.630Z,7.20
2024-03-22T09:33:13.794Z,7.20
2024-03-22T09:35:45.931Z,7.10
2024-03-22T09:38:17.622Z,6.60
2024-03-22T09:40:48.051Z,6.70
2024-03-22T09:45:53.406Z,6.70
2024-03-22T09:48:25.470Z,6.80
2024-03-22T09:50:56.511Z,6.80
2024-03-22T09:53:28.417Z,5.60
2024-03-22T09:55:59.413Z,6.00
2024-03-22T09:58:31.070Z,6.80
2024-03-22T10:01:01.796Z,6.80
2024-03-22T10:06:04.043Z,6.90
2024-03-22T10:08:35.742Z,6.00
2024-03-22T10:11:06.275Z,6.20
2024-03-22T10:16:08.822Z,6.40
2024-03-22T10:18:40.526Z,5.70
2024-03-22T10:21:11.155Z,5.80
2024-03-22T10:26:13.164Z,6.00
2024-03-22T10:28:48.678Z,6.60
2024-03-22T10:31:22.131Z,6.40
2024-03-22T10:33:52.739Z,6.70
2024-03-22T10:36:24.904Z,6.30
2024-03-22T10:38:56.234Z,6.80
2024-03-22T10:41:28.174Z,6.00
2024-03-22T10:43:59.601Z,6.50
2024-03-22T10:46:32.113Z,6.20
2024-03-22T10:49:05.430Z,6.10
2024-03-22T10:51:37.471Z,6.40
2024-03-22T10:54:07.798Z,6.10
2024-03-22T10:56:39.747Z,5.70
2024-03-22T10:59:10.286Z,6.20
2024-03-22T11:01:46.863Z,5.20
2024-03-22T11:04:19.023Z,5.40
2024-03-22T11:06:52.728Z,6.00
2024-03-22T11:09:26.663Z,5.50
2024-03-22T11:12:01.668Z,5.00
2024-03-22T11:14:33.467Z,6.00
2024-03-22T11:17:04.464Z,5.00
2024-03-22T11:19:36.223Z,4.20
2024-03-22T11:22:09.575Z,5.60
2024-03-22T11:24:41.272Z,4.80
2024-03-22T11:27:15.320Z,5.40
2024-03-22T11:29:48.041Z,5.20
2024-03-22T11:32:18.595Z,5.50
2024-03-22T11:34:50.457Z,5.30
2024-03-22T11:37:20.669Z,4.80
2024-03-22T11:39:53.049Z,5.90
2024-03-22T11:42:23.476Z,11.50
2024-03-22T11:44:55.446Z,6.90
2024-03-22T11:47:25.968Z,5.90
2024-03-22T11:49:57.822Z,6.40
2024-03-22T11:52:28.356Z,5.70
2024-03-22T11:55:00.015Z,13.10
2024-03-22T11:57:30.742Z,6.50
2024-03-22T12:00:15.172Z,5.70
2024-03-22T12:02:54.127Z,5.40
2024-03-22T12:05:24.550Z,5.90
2024-03-22T12:07:56.510Z,6.00
2024-03-22T12:10:26.673Z,6.40
2024-03-22T12:12:58.692Z,5.20
2024-03-22T12:15:29.636Z,5.60
2024-03-22T12:18:01.315Z,6.90
2024-03-22T12:20:31.925Z,5.50
2024-03-22T12:23:04.210Z,6.30
2024-03-22T12:25:34.814Z,5.50
2024-03-22T12:28:07.188Z,5.30
2024-03-22T12:30:37.633Z,5.10
2024-03-22T12:33:11.737Z,4.30
2024-03-22T12:35:42.562Z,3.60
2024-03-22T12:38:15.044Z,3.60
2024-03-22T12:40:45.466Z,3.70
2024-03-22T12:43:18.457Z,3.90
2024-03-22T12:45:48.887Z,3.80
2024-03-22T12:48:20.645Z,3.40
2024-03-22T12:50:51.268Z,4.10
2024-03-22T12:53:23.028Z,3.60
2024-03-22T12:55:53.455Z,4.00
2024-03-22T12:58:25.213Z,3.90
2024-03-22T13:00:55.733Z,3.90
2024-03-22T13:03:28.511Z,3.40
2024-03-22T13:05:58.841Z,3.70
2024-03-22T13:08:30.604Z,4.60
2024-03-22T13:11:01.137Z,3.60
2024-03-22T13:13:32.897Z,3.90
2024-03-22T13:16:04.091Z,3.40
2024-03-22T13:18:35.998Z,4.20
2024-03-22T13:21:06.941Z,3.40
2024-03-22T13:23:39.210Z,3.60
2024-03-22T13:26:09.633Z,3.60
2024-03-22T13:28:43.358Z,2.90
2024-03-22T13:31:14.093Z,3.40
2024-03-22T13:33:45.644Z,3.20
2024-03-22T13:36:16.361Z,4.90
2024-03-22T13:41:18.456Z,9.90
2024-03-22T13:46:20.413Z,2.90
2024-03-22T13:48:51.872Z,3.30
2024-03-22T13:51:22.892Z,3.10
2024-03-22T13:53:54.360Z,3.40
2024-03-22T13:56:27.674Z,16.60
2024-03-22T13:58:59.740Z,13.90
2024-03-22T14:01:31.116Z,4.30
2024-03-22T14:04:04.394Z,3.20
2024-03-22T14:06:35.139Z,2.90
2024-03-22T14:09:09.222Z,14.70
2024-03-22T14:11:40.464Z,20.80
2024-03-22T14:14:15.276Z,3.40
2024-03-22T14:16:48.192Z,3.40
2024-03-22T14:19:20.273Z,3.30
2024-03-22T14:21:52.211Z,3.30
2024-03-22T14:24:22.620Z,4.10
2024-03-22T14:26:54.373Z,16.40
2024-03-22T14:29:25.114Z,11.10
2024-03-22T14:34:27.711Z,13.50
2024-03-22T14:36:59.461Z,14.00
2024-03-22T14:39:30.406Z,14.20
2024-03-22T14:42:02.073Z,9.50
2024-03-22T14:44:32.810Z,9.10
2024-03-22T14:49:36.412Z,13.20
2024-03-22T14:52:08.474Z,9.30
2024-03-22T14:54:39.004Z,11.50
2024-03-22T14:57:11.167Z,10.30
2024-03-22T14:59:41.590Z,12.60
2024-03-22T15:02:13.730Z,8.70
2024-03-22T15:04:44.824Z,8.10
2024-03-22T15:07:17.277Z,10.10
2024-03-22T15:09:47.801Z,15.40
2024-03-22T15:12:19.465Z,12.70
2024-03-22T15:14:54.468Z,12.50
2024-03-22T15:17:26.214Z,10.70
2024-03-22T15:19:57.193Z,35.00
2024-03-22T15:22:29.426Z,37.80
2024-03-22T15:25:00.711Z,19.40
2024-03-22T15:27:32.674Z,31.40
2024-03-22T15:30:03.098Z,50.20
2024-03-22T15:32:35.269Z,69.30
2024-03-22T15:35:06.211Z,92.00
2024-03-22T15:37:38.762Z,53.10
2024-03-22T15:40:12.285Z,77.40
2024-03-22T15:42:44.341Z,48.80
2024-03-22T15:45:14.870Z,47.60
2024-03-22T15:47:46.728Z,30.70
2024-03-22T15:50:17.325Z,17.60
2024-03-22T15:52:49.232Z,47.00
2024-03-22T15:55:19.763Z,18.60
2024-03-22T15:57:53.972Z,22.50
2024-03-22T16:00:24.588Z,27.30
2024-03-22T16:02:57.379Z,26.00
2024-03-22T16:05:27.706Z,25.20
2024-03-22T16:07:59.668Z,25.10
2024-03-22T16:10:30.000Z,30.30
2024-03-22T16:13:02.153Z,41.20
2024-03-22T16:15:32.496Z,32.10
2024-03-22T16:20:35.380Z,36.10
2024-03-22T16:23:09.998Z,36.80
2024-03-22T16:25:43.690Z,24.30
2024-03-22T16:28:14.339Z,28.50
2024-03-22T16:30:45.814Z,27.20
2024-03-22T16:33:16.318Z,27.50
2024-03-22T16:35:48.194Z,21.80
2024-03-22T16:38:18.403Z,25.60
2024-03-22T16:40:50.370Z,19.30
2024-03-22T16:43:21.195Z,18.60
2024-03-22T16:45:52.853Z,18.10
2024-03-22T16:48:23.277Z,20.50
2024-03-22T16:50:55.648Z,26.20
2024-03-22T16:53:26.593Z,32.60
2024-03-22T16:55:58.465Z,29.00
2024-03-22T16:58:29.092Z,27.10
2024-03-22T17:03:41.107Z,37.00
2024-03-22T17:06:18.277Z,44.10
2024-03-22T17:08:53.523Z,37.90
2024-03-22T17:11:25.095Z,46.00
2024-03-22T17:13:58.169Z,42.40
2024-03-22T17:16:28.689Z,32.80
2024-03-22T17:19:00.465Z,34.00
2024-03-22T17:21:30.980Z,47.40
2024-03-22T17:24:02.735Z,48.40
2024-03-22T17:26:33.266Z,42.20
2024-03-22T17:29:05.570Z,44.20
2024-03-22T17:31:39.686Z,55.20
2024-03-22T17:34:12.018Z,41.80
2024-03-22T17:36:42.645Z,42.70
2024-03-22T17:39:15.494Z,43.90
2024-03-22T17:41:45.971Z,44.10
2024-03-22T17:44:17.834Z,37.90
2024-03-22T17:46:48.243Z,40.30
2024-03-22T17:49:20.117Z,41.30
2024-03-22T17:51:50.557Z,34.60
2024-03-22T17:54:22.497Z,36.30
2024-03-22T17:56:52.818Z,34.90
2024-03-22T17:59:24.791Z,39.90
2024-03-22T18:01:56.340Z,36.70
2024-03-22T18:04:28.193Z,34.40
2024-03-22T18:07:02.010Z,32.40
2024-03-22T18:09:34.279Z,28.30
2024-03-22T18:12:05.867Z,27.10
2024-03-22T18:14:37.585Z,23.10
2024-03-22T18:17:08.420Z,23.30
2024-03-22T18:19:40.382Z,21.60
2024-03-22T18:22:10.824Z,22.40
2024-03-22T18:24:42.870Z,23.50
2024-03-22T18:27:13.317Z,20.50
2024-03-22T18:29:45.158Z,21.10
2024-03-22T18:32:15.591Z,21.10
2024-03-22T18:34:47.225Z,20.50
2024-03-22T18:37:20.037Z,20.80
2024-03-22T18:39:51.977Z,30.10
2024-03-22T18:42:22.476Z,38.90
2024-03-22T18:44:54.473Z,29.60
2024-03-22T18:47:25.819Z,30.90
2024-03-22T18:49:57.596Z,22.60
2024-03-22T18:52:28.111Z,20.40
2024-03-22T18:55:02.547Z,22.80
2024-03-22T18:57:36.502Z,34.40
2024-03-22T19:00:07.799Z,24.20
2024-03-22T19:02:41.357Z,26.30
2024-03-22T19:05:11.615Z,29.80
2024-03-22T19:07:43.389Z,35.90
2024-03-22T19:10:14.914Z,47.70
2024-03-22T19:12:46.981Z,29.90
2024-03-22T19:15:17.327Z,48.50
2024-03-22T19:17:49.275Z,39.20
2024-03-22T19:20:19.597Z,45.90
2024-03-22T19:22:51.561Z,38.90
2024-03-22T19:25:23.621Z,57.80
2024-03-22T19:27:55.492Z,48.30
2024-03-22T19:30:26.139Z,42.50
2024-03-22T19:32:57.870Z,34.10
2024-03-22T19:35:29.118Z,38.40
2024-03-22T19:38:01.292Z,34.00
2024-03-22T19:40:31.816Z,40.30
2024-03-22T19:43:04.904Z,34.80
2024-03-22T19:45:35.742Z,37.40
2024-03-22T19:48:07.930Z,55.50
2024-03-22T19:50:38.634Z,28.80
2024-03-22T19:53:10.202Z,38.40
2024-03-22T19:55:40.826Z,51.40
2024-03-22T19:58:12.580Z,42.00
2024-03-22T20:00:43.107Z,79.50
2024-03-22T20:03:15.416Z,45.50
2024-03-22T20:05:47.251Z,30.80
2024-03-22T20:08:20.445Z,51.50
2024-03-22T20:10:50.865Z,50.40
2024-03-22T20:13:22.523Z,30.70
2024-03-22T20:15:53.174Z,31.40
2024-03-22T20:18:26.444Z,31.70
2024-03-22T20:20:57.851Z,26.60
2024-03-22T20:23:29.740Z,25.30
2024-03-22T20:26:00.284Z,24.70
2024-03-22T20:28:31.827Z,26.40
2024-03-22T20:31:02.690Z,26.00
2024-03-22T20:33:34.417Z,33.60
2024-03-22T20:36:05.539Z,45.30
2024-03-22T20:38:37.237Z,33.20
2024-03-22T20:41:07.444Z,31.00
2024-03-22T20:43:38.991Z,40.30
2024-03-22T20:46:09.532Z,42.40
2024-03-22T20:48:40.976Z,42.60
2024-03-22T20:51:13.783Z,59.90
2024-03-22T20:53:45.427Z,33.90
2024-03-22T20:56:16.153Z,30.60
2024-03-22T20:58:47.710Z,34.60
2024-03-22T21:01:19.900Z,37.20
2024-03-22T21:03:51.423Z,30.80
2024-03-22T21:06:22.158Z,29.10
2024-03-22T21:08:53.813Z,26.90
2024-03-22T21:11:24.573Z,25.70
2024-03-22T21:13:56.303Z,28.20
2024-03-22T21:16:26.834Z,26.30
2024-03-22T21:18:58.690Z,29.30
2024-03-22T21:21:29.321Z,32.20
2024-03-22T21:24:01.077Z,24.90
2024-03-22T21:26:31.604Z,34.10
2024-03-22T21:29:03.362Z,26.10
2024-03-22T21:31:34.295Z,27.60
2024-03-22T21:34:06.072Z,47.90
2024-03-22T21:36:36.789Z,43.20
2024-03-22T21:39:12.254Z,46.50
2024-03-22T21:41:45.055Z,35.00
2024-03-22T21:44:15.451Z,43.90
2024-03-22T21:46:47.616Z,45.50
2024-03-22T21:49:18.036Z,46.90
2024-03-22T21:51:49.797Z,35.80
2024-03-22T21:54:21.751Z,42.90
2024-03-22T21:56:53.409Z,35.50
2024-03-22T21:59:23.943Z,26.90
2024-03-22T22:01:55.998Z,25.30
2024-03-22T22:04:26.430Z,28.40
2024-03-22T22:06:58.194Z,27.40
2024-03-22T22:09:28.938Z,28.70
2024-03-22T22:12:00.579Z,24.60
2024-03-22T22:14:31.310Z,25.00
2024-03-22T22:17:02.869Z,24.00
2024-03-22T22:19:33.390Z,24.90
2024-03-22T22:22:04.947Z,20.30
2024-03-22T22:24:35.580Z,19.80
2024-03-22T22:27:07.212Z,26.70
2024-03-22T22:29:38.280Z,24.60
2024-03-22T22:32:10.140Z,25.90
2024-03-22T22:34:40.459Z,24.10
2024-03-22T22:37:11.906Z,20.80
2024-03-22T22:39:42.445Z,21.20
2024-03-22T22:42:14.008Z,21.40
2024-03-22T22:44:44.664Z,22.00
2024-03-22T22:47:16.180Z,23.50
2024-03-22T22:49:46.702Z,22.30
2024-03-22T22:52:18.366Z,17.50
2024-03-22T22:54:49.090Z,21.20
2024-03-22T22:57:20.766Z,19.00
2024-03-22T22:59:51.482Z,20.90
2024-03-22T23:02:23.251Z,21.80
2024-03-22T23:04:53.669Z,20.00
2024-03-22T23:07:25.425Z,20.90
2024-03-22T23:09:55.950Z,22.40
2024-03-22T23:12:27.815Z,26.20
2024-03-22T23:14:58.653Z,27.50
2024-03-22T23:17:30.419Z,33.80
2024-03-22T23:20:00.844Z,35.30
2024-03-22T23:22:32.712Z,40.10
2024-03-22T23:25:03.854Z,41.20
2024-03-22T23:27:36.124Z,45.70
2024-03-22T23:30:06.783Z,36.70
2024-03-22T23:32:38.403Z,25.50
2024-03-22T23:35:08.814Z,30.70
2024-03-22T23:37:41.195Z,28.30
2024-03-22T23:40:11.621Z,27.90
2024-03-22T23:42:43.782Z,29.80
2024-03-22T23:45:14.336Z,30.70
2024-03-22T23:47:45.967Z,26.30
2024-03-22T23:50:16.413Z,31.20
2024-03-22T23:52:48.143Z,25.50
2024-03-22T23:55:18.990Z,23.70
